createdAt,value
2024-01-16T00:03:48.248Z,1.87
2024-01-16T00:08:49.937Z,1.77
2024-01-16T00:13:51.609Z,1.82
2024-01-16T00:18:53.337Z,2.01
2024-01-16T00:23:54.985Z,1.59
2024-01-16T00:28:56.573Z,1.64
2024-01-16T00:33:58.289Z,1.78
2024-01-16T00:39:00.052Z,1.90
2024-01-16T00:44:01.746Z,1.32
2024-01-16T00:49:03.512Z,0.94
2024-01-16T00:54:07.446Z,1.11
2024-01-16T00:59:09.069Z,0.96
2024-01-16T01:04:10.837Z,0.91
2024-01-16T01:09:12.947Z,0.77
2024-01-16T01:14:15.069Z,0.74
2024-01-16T01:19:16.795Z,0.81
2024-01-16T01:24:18.453Z,0.71
2024-01-16T01:29:20.144Z,0.58
2024-01-16T01:34:22.067Z,0.62
2024-01-16T01:39:23.760Z,0.97
2024-01-16T01:44:26.255Z,1.03
2024-01-16T01:49:28.733Z,0.84
2024-01-16T01:54:31.912Z,0.84
2024-01-16T01:59:34.181Z,1.01
2024-01-16T02:04:37.227Z,0.89
2024-01-16T02:09:39.152Z,1.08
2024-01-16T02:14:40.980Z,0.96
2024-01-16T02:19:42.788Z,0.82
2024-01-16T02:24:44.498Z,0.80
2024-01-16T02:29:46.497Z,1.01
2024-01-16T02:34:48.295Z,0.93
2024-01-16T02:39:49.935Z,1.08
2024-01-16T02:44:51.638Z,1.12
2024-01-16T02:49:53.946Z,1.10
2024-01-16T02:54:55.549Z,1.17
2024-01-16T02:59:57.461Z,1.08
2024-01-16T03:04:59.097Z,0.97
2024-01-16T03:10:00.738Z,1.00
2024-01-16T03:15:02.426Z,0.64
2024-01-16T03:20:04.797Z,0.74
2024-01-16T03:25:08.717Z,0.74
2024-01-16T03:30:11.049Z,0.72
2024-01-16T03:35:12.858Z,0.70
2024-01-16T03:40:14.650Z,0.97
2024-01-16T03:45:17.891Z,0.85
2024-01-16T03:50:19.818Z,0.80
2024-01-16T03:55:22.180Z,0.69
2024-01-16T04:00:23.848Z,0.85
2024-01-16T04:05:25.612Z,0.86
2024-01-16T04:10:27.412Z,0.96
2024-01-16T04:15:29.655Z,0.68
2024-01-16T04:20:31.467Z,0.64
2024-01-16T04:25:33.118Z,0.39
2024-01-16T04:30:34.790Z,0.61
2024-01-16T04:35:36.567Z,0.48
2024-01-16T04:40:38.273Z,0.69
2024-01-16T04:45:39.918Z,0.74
2024-01-16T04:50:41.545Z,0.85
2024-01-16T04:55:43.181Z,0.95
2024-01-16T05:00:44.831Z,0.56
2024-01-16T05:05:46.597Z,0.68
2024-01-16T05:10:48.232Z,0.76
2024-01-16T05:15:49.991Z,0.69
2024-01-16T05:20:51.760Z,0.85
2024-01-16T05:25:53.420Z,0.85
2024-01-16T05:30:55.034Z,0.97
2024-01-16T05:35:58.795Z,0.97
2024-01-16T05:41:00.443Z,0.97
2024-01-16T05:46:02.089Z,1.07
2024-01-16T05:51:03.950Z,1.12
2024-01-16T05:56:05.989Z,0.95
2024-01-16T06:01:07.720Z,1.11
2024-01-16T06:06:09.432Z,1.18
2024-01-16T06:11:14.393Z,1.23
2024-01-16T06:16:17.630Z,1.34
2024-01-16T06:21:21.134Z,1.42
2024-01-16T06:26:24.362Z,0.79
2024-01-16T06:31:27.436Z,0.71
2024-01-16T06:36:29.205Z,0.39
2024-01-16T06:41:30.892Z,0.54
2024-01-16T06:46:32.664Z,0.54
2024-01-16T06:51:34.322Z,0.52
2024-01-16T06:56:35.965Z,0.71
2024-01-16T07:01:37.618Z,0.73
2024-01-16T07:06:39.300Z,0.77
2024-01-16T07:11:44.236Z,0.73
2024-01-16T07:16:46.277Z,0.73
2024-01-16T07:21:47.876Z,0.82
2024-01-16T07:26:49.640Z,0.74
2024-01-16T07:31:51.782Z,0.45
2024-01-16T07:36:53.485Z,0.64
2024-01-16T07:41:55.205Z,0.83
2024-01-16T07:46:56.865Z,0.91
2024-01-16T07:51:58.481Z,0.98
2024-01-16T07:57:00.683Z,1.20
2024-01-16T08:02:02.333Z,1.25
2024-01-16T08:07:04.361Z,1.47
2024-01-16T08:12:07.094Z,1.26
2024-01-16T08:17:09.401Z,1.14
2024-01-16T08:22:11.125Z,1.40
2024-01-16T08:27:13.466Z,1.25
2024-01-16T08:32:15.116Z,1.37
2024-01-16T08:37:16.775Z,1.38
2024-01-16T08:42:19.327Z,1.67
2024-01-16T08:47:21.045Z,1.86
2024-01-16T08:52:22.775Z,2.11
2024-01-16T08:57:25.522Z,2.54
2024-01-16T09:02:30.323Z,2.41
2024-01-16T09:07:32.141Z,2.28
2024-01-16T09:12:34.531Z,2.37
2024-01-16T09:17:36.346Z,2.17
2024-01-16T09:22:38.035Z,1.95
2024-01-16T09:27:39.703Z,1.90
2024-01-16T09:32:41.850Z,1.98
2024-01-16T09:37:43.496Z,2.01
2024-01-16T09:42:45.973Z,1.99
2024-01-16T09:47:51.738Z,2.13
2024-01-16T09:52:56.801Z,2.26
2024-01-16T09:58:01.667Z,2.36
2024-01-16T10:03:05.768Z,2.34
2024-01-16T10:08:09.331Z,2.11
2024-01-16T10:13:11.096Z,1.76
2024-01-16T10:18:31.905Z,1.83
2024-01-16T10:23:34.263Z,1.74
2024-01-16T10:28:37.227Z,1.93
2024-01-16T10:33:40.631Z,1.99
2024-01-16T10:38:44.932Z,1.90
2024-01-16T10:43:46.745Z,2.00
2024-01-16T10:49:01.646Z,2.08
2024-01-16T10:54:07.158Z,2.12
2024-01-16T10:59:20.091Z,2.13
2024-01-16T11:04:22.379Z,1.49
2024-01-16T11:09:24.914Z,1.56
2024-01-16T11:14:27.345Z,1.92
2024-01-16T11:19:38.962Z,2.09
2024-01-16T11:25:13.200Z,2.13
2024-01-16T11:30:31.489Z,2.49
2024-01-16T11:35:43.831Z,2.10
2024-01-16T11:40:45.525Z,1.99
2024-01-16T11:45:50.881Z,2.32
2024-01-16T11:50:53.931Z,2.47
2024-01-16T11:56:33.845Z,2.63
2024-01-16T12:01:43.047Z,2.45
2024-01-16T12:06:44.814Z,2.42
2024-01-16T12:12:05.736Z,2.16
2024-01-16T12:17:15.036Z,1.93
2024-01-16T12:22:17.735Z,2.28
2024-01-16T12:27:19.362Z,2.45
2024-01-16T12:32:22.555Z,2.63
2024-01-16T12:37:24.270Z,2.61
2024-01-16T12:42:26.192Z,2.20
2024-01-16T12:47:27.988Z,2.41
2024-01-16T12:52:31.106Z,2.27
2024-01-16T12:57:32.778Z,2.15
2024-01-16T13:02:34.953Z,1.84
2024-01-16T13:07:36.835Z,2.08
2024-01-16T13:12:39.005Z,1.78
2024-01-16T13:17:40.847Z,1.63
2024-01-16T13:22:45.372Z,1.98
2024-01-16T13:27:49.508Z,1.95
2024-01-16T13:32:51.273Z,2.12
2024-01-16T13:37:52.976Z,2.01
2024-01-16T13:42:54.570Z,1.88
2024-01-16T13:47:57.047Z,1.92
2024-01-16T13:52:58.829Z,1.91
2024-01-16T13:58:00.968Z,1.67
2024-01-16T14:03:04.747Z,1.68
2024-01-16T14:08:06.725Z,1.73
2024-01-16T14:13:08.368Z,1.74
2024-01-16T14:18:10.454Z,1.88
2024-01-16T14:23:13.700Z,1.77
2024-01-16T14:28:21.143Z,1.78
2024-01-16T14:33:28.586Z,1.72
2024-01-16T14:38:30.345Z,1.46
2024-01-16T14:43:32.072Z,1.41
2024-01-16T14:48:33.807Z,1.55
2024-01-16T14:53:35.521Z,1.54
2024-01-16T14:58:37.122Z,1.46
2024-01-16T15:03:39.666Z,1.35
2024-01-16T15:08:41.383Z,1.21
2024-01-16T15:13:43.009Z,1.08
2024-01-16T15:18:45.055Z,1.01
2024-01-16T15:23:47.421Z,1.00
2024-01-16T15:28:50.504Z,0.89
2024-01-16T15:33:53.064Z,0.85
2024-01-16T15:38:54.796Z,0.73
2024-01-16T15:43:58.034Z,0.62
2024-01-16T15:48:59.812Z,0.43
2024-01-16T15:54:01.501Z,0.28
2024-01-16T15:59:03.172Z,0.17
2024-01-16T16:04:05.796Z,0.00
2024-01-16T16:09:08.978Z,-0.02
2024-01-16T16:14:10.821Z,-0.09
2024-01-16T16:19:12.789Z,-0.02
2024-01-16T16:24:14.592Z,-0.05
2024-01-16T16:29:16.566Z,-0.20
2024-01-16T16:34:20.213Z,-0.32
2024-01-16T16:39:23.718Z,-0.26
2024-01-16T16:44:25.413Z,-0.32
2024-01-16T16:49:27.153Z,-0.42
2024-01-16T16:54:31.105Z,-0.61
2024-01-16T16:59:32.826Z,-0.83
2024-01-16T17:04:34.804Z,-1.31
2024-01-16T17:09:36.592Z,-1.31
2024-01-16T17:14:38.455Z,-1.32
2024-01-16T17:19:41.611Z,-1.44
2024-01-16T17:24:43.636Z,-1.52
2024-01-16T17:29:46.309Z,-1.41
2024-01-16T17:34:48.053Z,-1.62
2024-01-16T17:39:51.224Z,-1.60
2024-01-16T17:44:52.977Z,-1.49
2024-01-16T17:49:54.684Z,-1.53
2024-01-16T17:54:56.282Z,-1.67
2024-01-16T17:59:57.961Z,-1.88
2024-01-16T18:04:59.612Z,-1.92
2024-01-16T18:10:01.194Z,-2.21
2024-01-16T18:15:02.872Z,-1.96
2024-01-16T18:20:10.690Z,-1.90
2024-01-16T18:25:15.176Z,-1.96
2024-01-16T18:30:17.146Z,-1.68
2024-01-16T18:35:19.860Z,-1.43
2024-01-16T18:40:23.666Z,-1.39
2024-01-16T18:45:25.466Z,-1.28
2024-01-16T18:50:27.507Z,-1.50
2024-01-16T18:55:29.383Z,-1.53
2024-01-16T19:00:30.990Z,-1.48
2024-01-16T19:05:35.797Z,-1.42
2024-01-16T19:10:37.561Z,-1.46
2024-01-16T19:15:39.190Z,-1.36
2024-01-16T19:20:41.264Z,-1.22
2024-01-16T19:25:42.911Z,-1.24
2024-01-16T19:30:44.880Z,-1.36
2024-01-16T19:35:50.647Z,-1.35
2024-01-16T19:40:53.172Z,-1.40
2024-01-16T19:45:54.797Z,-1.38
2024-01-16T19:50:56.714Z,-1.35
2024-01-16T19:56:00.230Z,-1.37
2024-01-16T20:01:04.011Z,-1.49
2024-01-16T20:06:05.931Z,-1.32
2024-01-16T20:11:07.564Z,-1.45
2024-01-16T20:16:09.284Z,-1.55
2024-01-16T20:21:10.959Z,-1.36
2024-01-16T20:26:13.279Z,-1.09
2024-01-16T20:31:15.087Z,-0.94
2024-01-16T20:36:17.763Z,-0.86
2024-01-16T20:41:19.465Z,-0.73
2024-01-16T20:46:21.127Z,-0.95
2024-01-16T20:51:23.279Z,-0.73
2024-01-16T20:56:24.912Z,-0.78
2024-01-16T21:01:26.525Z,-0.68
2024-01-16T21:06:28.529Z,-0.78
2024-01-16T21:11:30.297Z,-0.73
2024-01-16T21:16:32.991Z,-0.81
2024-01-16T21:21:34.705Z,-0.84
2024-01-16T21:26:36.392Z,-0.72
2024-01-16T21:31:49.827Z,-0.68
2024-01-16T21:36:53.945Z,-0.80
2024-01-16T21:41:55.666Z,-0.91
2024-01-16T21:46:57.345Z,-1.04
2024-01-16T21:51:59.839Z,-0.92
2024-01-16T21:57:01.491Z,-0.89
2024-01-16T22:02:03.201Z,-1.04
2024-01-16T22:07:04.918Z,-1.39
2024-01-16T22:12:09.798Z,-1.33
2024-01-16T22:17:11.561Z,-1.27
2024-01-16T22:22:13.170Z,-1.39
2024-01-16T22:27:14.770Z,-1.35
2024-01-16T22:32:16.368Z,-1.42
2024-01-16T22:37:19.038Z,-1.45
2024-01-16T22:42:21.796Z,-1.31
2024-01-16T22:47:23.560Z,-1.26
2024-01-16T22:52:27.633Z,-1.17
2024-01-16T22:57:29.275Z,-1.14
2024-01-16T23:02:30.936Z,-1.24
2024-01-16T23:07:32.526Z,-1.31
2024-01-16T23:12:34.194Z,-1.36
2024-01-16T23:17:36.102Z,-1.38
2024-01-16T23:22:56.492Z,-1.33
2024-01-16T23:27:58.104Z,-1.27
2024-01-16T23:33:00.787Z,-1.37
2024-01-16T23:38:02.731Z,-1.33
2024-01-16T23:43:04.604Z,-1.60
2024-01-16T23:48:06.613Z,-1.62
2024-01-16T23:53:08.343Z,-1.54
2024-01-16T23:58:10.293Z,-1.56
